Time;durP1;ratioP1;P1;durP2;ratioP2;P2;SDS_P1;SDS_P2;PMS_P1;PMS_P2;Temp;Humidity;BMP_temperature;BMP_pressure;BME280_temperature;BME280_humidity;BME280_pressure;Samples;Min_cycle;Max_cycle;Signal;HPM_P1;HPM_P2
2022/09/24 00:01:58;;;;;;;8.27;7.47;;;12.50;1.00;;;;;;4990548;28;20221;-59
2022/09/24 00:04:26;;;;;;;7.60;6.80;;;12.60;1.00;;;;;;4990472;28;20437;-58
2022/09/24 00:06:52;;;;;;;9.40;6.30;;;12.60;1.00;;;;;;4990716;28;20198;-59
2022/09/24 00:09:20;;;;;;;6.97;6.30;;;12.70;1.00;;;;;;4989541;28;20412;-58
2022/09/24 00:11:48;;;;;;;7.10;6.40;;;12.60;1.00;;;;;;4990887;28;20466;-58
2022/09/24 00:14:15;;;;;;;7.17;6.50;;;12.50;1.00;;;;;;4989924;28;20916;-58
2022/09/24 00:16:42;;;;;;;6.80;6.20;;;12.50;1.00;;;;;;4990775;28;20495;-58
2022/09/24 00:19:09;;;;;;;6.90;6.30;;;12.60;1.00;;;;;;4990152;28;20502;-59
2022/09/24 00:21:36;;;;;;;6.70;6.00;;;12.60;1.00;;;;;;4989631;28;20469;-58
2022/09/24 00:24:05;;;;;;;7.13;6.47;;;12.60;1.00;;;;;;4990943;28;20927;-58
2022/09/24 00:26:49;;;;;;;7.10;6.40;;;12.60;1.00;;;;;;4990047;28;20436;-59
2022/09/24 00:29:21;;;;;;;6.43;5.83;;;12.50;1.00;;;;;;4990939;28;20407;-58
2022/09/24 00:31:47;;;;;;;7.13;6.43;;;12.60;1.00;;;;;;4990390;28;20839;-58
2022/09/24 00:34:13;;;;;;;9.20;6.30;;;12.60;1.00;;;;;;4988226;28;20432;-58
2022/09/24 00:36:39;;;;;;;8.90;6.10;;;12.60;1.00;;;;;;4994111;28;20410;-59
2022/09/24 00:39:05;;;;;;;7.50;6.70;;;12.50;1.00;;;;;;4995325;28;20187;-58
2022/09/24 00:41:34;;;;;;;6.90;6.20;;;12.60;1.00;;;;;;4990040;28;20207;-58
2022/09/24 00:44:00;;;;;;;8.93;6.07;;;12.50;1.00;;;;;;4988187;28;20473;-58
2022/09/24 00:46:41;;;;;;;8.20;7.47;;;12.50;1.00;;;;;;4989763;28;20503;-58
2022/09/24 00:49:12;;;;;;;6.63;5.93;;;12.50;1.00;;;;;;4989275;28;20443;-59
2022/09/24 00:51:40;;;;;;;8.00;6.63;;;12.40;1.00;;;;;;4990320;28;20417;-57
2022/09/24 00:54:10;;;;;;;7.00;6.23;;;12.40;1.00;;;;;;4988645;28;20431;-59
2022/09/24 00:56:39;;;;;;;7.30;6.70;;;12.40;1.00;;;;;;4972508;28;20982;-57
2022/09/24 00:59:10;;;;;;;6.73;6.07;;;12.40;1.00;;;;;;4990052;28;20444;-58
2022/09/24 01:01:35;;;;;;;7.40;5.87;;;12.40;1.00;;;;;;4990327;28;20470;-58
2022/09/24 01:04:03;;;;;;;8.27;6.50;;;12.30;1.00;;;;;;4991551;28;20416;-58
2022/09/24 01:06:29;;;;;;;7.00;6.30;;;12.30;1.00;;;;;;4989063;28;20258;-58
2022/09/24 01:08:56;;;;;;;7.30;6.70;;;12.30;1.00;;;;;;4988602;28;20564;-58
2022/09/24 01:11:50;;;;;;;7.43;6.30;;;12.30;1.00;;;;;;4987860;28;20474;-58
2022/09/24 01:14:18;;;;;;;6.50;5.90;;;12.20;1.00;;;;;;4988779;28;20431;-58
2022/09/24 01:16:54;;;;;;;7.07;6.37;;;12.10;1.00;;;;;;4989460;28;20468;-58
2022/09/24 01:19:31;;;;;;;7.87;6.33;;;12.10;1.00;;;;;;4989971;28;20444;-58
2022/09/24 01:22:03;;;;;;;7.30;6.60;;;12.00;1.00;;;;;;4989680;28;20500;-59
2022/09/24 01:24:36;;;;;;;7.67;6.03;;;12.00;1.00;;;;;;4990016;28;20507;-58
2022/09/24 01:27:41;;;;;;;10.67;6.37;;;12.00;1.00;;;;;;4989760;28;20449;-58
2022/09/24 01:30:10;;;;;;;6.33;5.60;;;11.90;1.00;;;;;;4989989;28;20470;-59
2022/09/24 01:32:39;;;;;;;5.97;5.47;;;12.00;1.00;;;;;;4991469;28;20428;-58
2022/09/24 01:35:17;;;;;;;6.27;5.67;;;12.00;1.00;;;;;;4992283;28;20773;-58
2022/09/24 01:37:56;;;;;;;6.83;6.13;;;12.10;1.00;;;;;;4993587;28;20449;-58
2022/09/24 01:40:25;;;;;;;7.80;6.53;;;12.10;1.00;;;;;;4993111;28;20921;-58
2022/09/24 01:42:53;;;;;;;7.10;5.70;;;12.20;1.00;;;;;;4993345;28;20468;-58
2022/09/24 01:45:20;;;;;;;8.53;6.80;;;12.10;1.00;;;;;;4993521;28;20940;-58
2022/09/24 01:47:46;;;;;;;7.00;6.40;;;12.20;1.00;;;;;;4975449;28;20441;-58
2022/09/24 01:50:15;;;;;;;7.30;6.60;;;12.20;1.00;;;;;;4993332;28;20753;-58
2022/09/24 01:52:58;;;;;;;7.70;6.30;;;12.20;1.00;;;;;;4993223;28;20527;-58
2022/09/24 01:55:32;;;;;;;6.60;5.90;;;12.20;1.00;;;;;;4993489;28;20416;-58
2022/09/24 01:58:09;;;;;;;7.00;6.07;;;12.10;1.00;;;;;;4992208;28;20955;-58
2022/09/24 02:00:38;;;;;;;7.67;6.23;;;12.10;1.00;;;;;;4989336;28;20858;-59
2022/09/24 02:03:28;;;;;;;6.70;6.10;;;12.20;1.00;;;;;;4991971;28;20455;-57
2022/09/24 02:06:16;;;;;;;7.83;7.03;;;12.20;1.00;;;;;;4990118;28;20423;-58
2022/09/24 02:08:46;;;;;;;7.90;7.07;;;12.20;1.00;;;;;;4988395;28;20590;-58
2022/09/24 02:11:16;;;;;;;5.77;5.27;;;12.20;1.00;;;;;;4992570;28;20957;-59
2022/09/24 02:14:03;;;;;;;7.40;6.70;;;12.20;1.00;;;;;;4975599;28;20420;-59
2022/09/24 02:16:36;;;;;;;6.67;6.07;;;12.20;1.00;;;;;;4992066;28;20487;-59
2022/09/24 02:19:06;;;;;;;9.47;7.17;;;12.20;1.00;;;;;;4990255;28;20445;-59
2022/09/24 02:21:34;;;;;;;6.93;6.30;;;12.10;1.00;;;;;;4991810;28;20469;-58
2022/09/24 02:24:06;;;;;;;8.03;6.67;;;12.10;1.00;;;;;;4992060;28;20584;-59
2022/09/24 02:26:32;;;;;;;6.00;5.50;;;12.00;1.00;;;;;;4991758;28;20476;-59
2022/09/24 02:28:59;;;;;;;7.00;6.30;;;11.90;1.00;;;;;;4975047;28;20897;-58
2022/09/24 02:31:32;;;;;;;6.20;5.70;;;11.90;1.00;;;;;;4990179;28;20445;-58
2022/09/24 02:34:22;;;;;;;7.70;6.80;;;11.90;1.00;;;;;;4992416;28;20540;-59
2022/09/24 02:37:01;;;;;;;7.17;6.47;;;11.80;1.00;;;;;;4992604;28;20408;-59
2022/09/24 02:39:26;;;;;;;6.67;5.90;;;11.80;1.00;;;;;;4990884;28;20456;-56
2022/09/24 02:41:53;;;;;;;7.93;6.23;;;11.70;1.00;;;;;;4988799;28;20490;-59
2022/09/24 02:44:19;;;;;;;9.80;6.73;;;11.60;1.00;;;;;;4992030;28;20631;-58
2022/09/24 02:46:46;;;;;;;7.23;6.50;;;11.70;1.00;;;;;;4992371;28;20901;-59
2022/09/24 02:49:13;;;;;;;8.37;7.40;;;11.70;1.00;;;;;;4992688;28;20420;-60
2022/09/24 02:51:39;;;;;;;7.03;6.43;;;11.60;1.00;;;;;;4991603;28;20452;-57
2022/09/24 02:54:05;;;;;;;7.40;6.70;;;11.60;1.00;;;;;;4992214;28;20461;-59
2022/09/24 02:56:31;;;;;;;7.43;6.43;;;11.60;1.00;;;;;;4992103;28;20735;-59
2022/09/24 02:58:57;;;;;;;7.27;6.17;;;11.60;1.00;;;;;;4991537;28;20457;-59
2022/09/24 03:01:23;;;;;;;7.17;6.47;;;11.70;1.00;;;;;;4991409;28;20489;-58
2022/09/24 03:03:50;;;;;;;8.63;6.10;;;11.70;1.00;;;;;;4990898;28;20456;-58
2022/09/24 03:06:15;;;;;;;6.70;6.03;;;11.70;1.00;;;;;;4991722;28;20416;-58
2022/09/24 03:08:43;;;;;;;6.77;5.70;;;11.70;1.00;;;;;;4990806;28;20757;-57
2022/09/24 03:11:10;;;;;;;6.30;5.70;;;11.70;1.00;;;;;;4988041;28;20202;-59
2022/09/24 03:13:37;;;;;;;5.67;5.17;;;11.60;1.00;;;;;;4991266;28;20457;-59
2022/09/24 03:16:03;;;;;;;7.33;6.60;;;11.60;1.00;;;;;;4991778;28;20500;-59
2022/09/24 03:18:29;;;;;;;6.83;5.83;;;11.60;1.00;;;;;;4990197;28;20432;-59
2022/09/24 03:20:57;;;;;;;6.97;6.27;;;11.60;1.00;;;;;;4990664;28;20944;-58
2022/09/24 03:23:22;;;;;;;13.33;6.10;;;11.70;1.00;;;;;;4991749;28;20600;-58
2022/09/24 03:25:48;;;;;;;6.83;6.20;;;11.60;1.00;;;;;;4991492;28;20439;-58
2022/09/24 03:28:14;;;;;;;6.80;6.20;;;11.60;1.00;;;;;;4991175;28;20185;-58
2022/09/24 03:33:23;;;;;;;6.50;5.90;;;11.60;1.00;;;;;;4988800;28;20200;-58
2022/09/24 03:35:53;;;;;;;6.47;5.87;;;11.60;1.00;;;;;;4991299;28;20425;-58
2022/09/24 03:38:19;;;;;;;6.60;6.00;;;11.60;1.00;;;;;;4990463;28;20548;-59
2022/09/24 03:40:44;;;;;;;6.93;6.13;;;11.50;1.00;;;;;;4991423;28;20437;-58
2022/09/24 03:43:10;;;;;;;7.20;6.50;;;11.50;1.00;;;;;;4989844;28;20237;-58
2022/09/24 03:45:36;;;;;;;6.90;6.17;;;11.40;1.00;;;;;;4990467;28;20186;-58
2022/09/24 03:48:02;;;;;;;6.90;5.80;;;11.40;1.00;;;;;;4991353;28;20232;-58
2022/09/24 03:50:27;;;;;;;7.73;5.80;;;11.40;1.00;;;;;;4990878;28;20420;-59
2022/09/24 03:52:53;;;;;;;7.00;6.40;;;11.40;1.00;;;;;;4991480;28;20665;-58
2022/09/24 03:55:18;;;;;;;8.57;7.80;;;11.30;1.00;;;;;;4989861;28;20592;-58
2022/09/24 03:57:44;;;;;;;7.00;6.40;;;11.30;1.00;;;;;;4990302;28;20228;-58
2022/09/24 04:00:10;;;;;;;7.67;6.20;;;11.30;1.00;;;;;;4990433;28;20246;-60
2022/09/24 04:02:36;;;;;;;6.93;6.03;;;11.20;1.00;;;;;;4990008;28;20619;-58
2022/09/24 04:05:01;;;;;;;6.00;5.50;;;11.20;1.00;;;;;;4991399;28;20536;-59
2022/09/24 04:07:27;;;;;;;6.50;5.90;;;11.20;1.00;;;;;;4990174;28;20265;-58
2022/09/24 04:09:52;;;;;;;6.47;5.87;;;11.10;1.00;;;;;;4990653;28;20220;-58
2022/09/24 04:12:18;;;;;;;7.43;6.43;;;11.10;1.00;;;;;;4990070;28;20691;-58
2022/09/24 04:14:44;;;;;;;8.80;7.33;;;11.00;1.00;;;;;;4990969;28;20182;-59
2022/09/24 04:17:10;;;;;;;7.60;6.33;;;11.00;1.00;;;;;;4989861;28;20453;-58
2022/09/24 04:19:35;;;;;;;7.17;6.50;;;11.00;1.00;;;;;;4991405;28;20185;-58
2022/09/24 04:22:01;;;;;;;7.63;6.83;;;10.90;1.00;;;;;;4990350;28;20875;-59
2022/09/24 04:24:26;;;;;;;7.33;6.50;;;10.90;1.00;;;;;;4990808;28;20194;-58
2022/09/24 04:26:52;;;;;;;6.50;6.00;;;10.90;1.00;;;;;;4990259;28;20182;-58
2022/09/24 04:29:17;;;;;;;7.97;7.20;;;12.20;1.00;;;;;;4989747;28;20194;-58
2022/09/24 04:31:43;;;;;;;7.13;6.53;;;10.80;1.00;;;;;;4990616;28;20229;-58
2022/09/24 04:34:09;;;;;;;7.30;6.70;;;10.70;1.00;;;;;;4990418;28;20194;-59
2022/09/24 04:36:34;;;;;;;7.10;6.50;;;10.90;1.00;;;;;;4994074;28;20186;-58
2022/09/24 04:39:02;;;;;;;7.23;6.60;;;10.90;1.00;;;;;;4990781;28;20460;-59
2022/09/24 04:41:27;;;;;;;8.43;7.00;;;10.80;1.00;;;;;;4990600;28;20202;-60
2022/09/24 04:43:53;;;;;;;7.80;7.17;;;10.90;1.00;;;;;;5001808;28;20458;-59
2022/09/24 04:46:18;;;;;;;6.53;5.90;;;10.90;1.00;;;;;;4990529;28;20276;-59
2022/09/24 04:48:44;;;;;;;7.80;6.80;;;10.90;1.00;;;;;;4990091;28;20181;-59
2022/09/24 04:51:09;;;;;;;7.90;7.20;;;10.80;1.00;;;;;;4990008;28;20193;-58
2022/09/24 04:53:36;;;;;;;7.30;6.60;;;10.80;1.00;;;;;;4990295;28;20198;-58
2022/09/24 04:56:09;;;;;;;8.10;6.60;;;13.00;1.00;;;;;;4989831;28;20190;-59
2022/09/24 04:58:35;;;;;;;7.80;7.20;;;10.70;1.00;;;;;;4988388;28;20548;-58
2022/09/24 05:01:02;;;;;;;8.33;6.50;;;10.70;1.00;;;;;;4972320;28;20788;-59
2022/09/24 05:03:28;;;;;;;6.27;5.50;;;10.70;1.00;;;;;;4990422;28;20178;-59
2022/09/24 05:05:54;;;;;;;9.10;6.90;;;10.80;1.00;;;;;;4987594;28;20453;-59
2022/09/24 05:08:19;;;;;;;8.10;6.97;;;10.80;1.00;;;;;;4992831;28;20182;-58
2022/09/24 05:10:45;;;;;;;8.90;7.60;;;10.80;1.00;;;;;;4992884;28;20698;-59
2022/09/24 05:13:11;;;;;;;6.73;6.03;;;10.80;1.00;;;;;;4993772;28;20186;-60
2022/09/24 05:15:36;;;;;;;6.53;5.80;;;10.90;1.00;;;;;;4990792;28;20193;-58
2022/09/24 05:18:02;;;;;;;8.07;7.27;;;10.90;1.00;;;;;;4991690;28;20194;-58
2022/09/24 05:20:27;;;;;;;7.37;6.70;;;11.00;1.00;;;;;;4988588;28;20187;-58
2022/09/24 05:22:53;;;;;;;6.40;5.77;;;11.00;1.00;;;;;;4991417;28;20675;-58
2022/09/24 05:25:20;;;;;;;7.00;6.27;;;11.10;1.00;;;;;;4993217;28;20182;-59
2022/09/24 05:27:48;;;;;;;7.67;6.97;;;11.10;1.00;;;;;;4993484;28;20224;-58
2022/09/24 05:30:15;;;;;;;7.03;6.30;;;11.20;1.00;;;;;;4993216;28;20445;-58
2022/09/24 05:32:41;;;;;;;7.90;7.00;;;11.20;1.00;;;;;;4993146;28;20552;-59
2022/09/24 05:35:08;;;;;;;8.17;7.33;;;11.30;1.00;;;;;;4993324;28;20503;-59
2022/09/24 05:37:34;;;;;;;7.70;6.60;;;11.30;1.00;;;;;;4992856;28;20514;-58
2022/09/24 05:40:46;;;;;;;7.20;6.60;;;11.40;1.00;;;;;;4992348;28;20422;-58
2022/09/24 05:42:46;;;;;;;6.93;6.23;;;11.50;1.00;;;;;;4990512;28;20464;-59
2022/09/24 05:45:16;;;;;;;7.83;6.87;;;11.60;1.00;;;;;;4992810;28;20503;-58
2022/09/24 05:47:45;;;;;;;6.33;5.73;;;11.70;1.00;;;;;;4994122;28;20504;-57
2022/09/24 05:50:12;;;;;;;9.57;6.10;;;11.80;1.00;;;;;;4993577;28;20720;-57
2022/09/24 05:52:41;;;;;;;7.60;6.80;;;11.90;1.00;;;;;;4993500;28;20467;-60
2022/09/24 05:55:08;;;;;;;7.57;6.20;;;12.00;1.00;;;;;;4993061;28;20794;-59
2022/09/24 05:57:34;;;;;;;6.87;6.27;;;11.90;1.00;;;;;;4996519;28;20480;-60
2022/09/24 06:00:00;;;;;;;7.07;6.37;;;12.00;1.00;;;;;;4992862;28;20475;-61
2022/09/24 06:02:25;;;;;;;7.47;6.83;;;12.00;1.00;;;;;;4990866;28;20313;-61
2022/09/24 06:04:51;;;;;;;7.17;6.43;;;12.00;1.00;;;;;;4993068;28;20687;-60
2022/09/24 06:07:16;;;;;;;8.20;6.23;;;11.90;1.00;;;;;;4992681;28;20237;-61
2022/09/24 06:09:43;;;;;;;7.00;6.30;;;11.90;1.00;;;;;;4988258;28;20179;-61
2022/09/24 06:12:09;;;;;;;7.17;6.50;;;12.00;1.00;;;;;;4993026;28;20611;-60
2022/09/24 06:14:35;;;;;;;7.67;6.20;;;12.10;1.00;;;;;;4992426;28;20420;-60
2022/09/24 06:17:00;;;;;;;9.00;6.77;;;12.10;1.00;;;;;;4992309;28;20949;-61
2022/09/24 06:19:26;;;;;;;8.03;7.23;;;12.10;1.00;;;;;;4991665;28;20233;-60
2022/09/24 06:21:52;;;;;;;6.73;6.13;;;12.10;1.00;;;;;;4991962;28;20213;-61
2022/09/24 06:24:17;;;;;;;10.43;7.07;;;12.10;1.00;;;;;;4991557;28;20194;-60
2022/09/24 06:26:43;;;;;;;7.50;6.80;;;12.20;1.00;;;;;;4992233;28;20190;-61
2022/09/24 06:29:08;;;;;;;7.10;6.43;;;12.40;1.00;;;;;;4992617;28;20190;-60
2022/09/24 06:31:34;;;;;;;7.07;6.47;;;12.50;1.00;;;;;;4991894;28;20193;-59
2022/09/24 06:34:01;;;;;;;7.13;6.43;;;12.50;1.00;;;;;;4993065;28;20178;-60
2022/09/24 06:36:27;;;;;;;7.30;6.60;;;12.60;1.00;;;;;;4991448;28;20664;-60
2022/09/24 06:38:52;;;;;;;7.33;6.20;;;12.70;1.00;;;;;;4992066;28;20424;-59
2022/09/24 06:41:18;;;;;;;7.70;6.90;;;12.90;1.00;;;;;;4992346;28;20595;-60
2022/09/24 06:43:44;;;;;;;9.13;6.00;;;13.10;1.00;;;;;;4991162;28;20222;-60
2022/09/24 06:46:10;;;;;;;6.87;6.27;;;13.10;1.00;;;;;;4991172;28;20652;-60
2022/09/24 06:48:37;;;;;;;6.87;6.27;;;13.20;1.00;;;;;;4991121;28;20453;-60
2022/09/24 06:51:06;;;;;;;6.60;6.00;;;13.30;1.00;;;;;;4991453;28;20600;-60
2022/09/24 06:53:32;;;;;;;7.13;6.43;;;13.50;1.00;;;;;;4991740;28;20446;-60
2022/09/24 06:55:58;;;;;;;7.77;7.07;;;13.50;1.00;;;;;;4998830;28;20779;-60
2022/09/24 06:58:24;;;;;;;11.07;6.83;;;13.50;1.00;;;;;;4992542;28;20213;-60
2022/09/24 07:00:57;;;;;;;7.03;6.43;;;13.40;1.00;;;;;;4992056;28;20416;-59
2022/09/24 07:03:24;;;;;;;7.50;6.80;;;13.30;1.00;;;;;;4991963;28;20835;-59
2022/09/24 07:05:50;;;;;;;12.53;6.97;;;13.50;1.00;;;;;;4991839;28;20459;-59
2022/09/24 07:08:16;;;;;;;7.53;6.83;;;13.50;1.00;;;;;;4991840;28;20438;-59
2022/09/24 07:10:44;;;;;;;6.90;6.30;;;13.60;1.00;;;;;;4992235;28;20174;-59
2022/09/24 07:13:11;;;;;;;7.07;6.37;;;13.90;1.00;;;;;;4991121;28;20457;-59
2022/09/24 07:15:38;;;;;;;7.73;6.20;;;14.20;1.00;;;;;;4991309;28;20504;-59
2022/09/24 07:18:04;;;;;;;7.70;6.50;;;14.30;1.00;;;;;;4990234;28;20481;-61
2022/09/24 07:20:35;;;;;;;7.40;6.60;;;14.40;1.00;;;;;;4989488;28;20933;-59
2022/09/24 07:23:01;;;;;;;6.63;5.93;;;14.20;1.00;;;;;;4990938;28;20684;-60
2022/09/24 07:25:27;;;;;;;7.27;6.57;;;14.60;1.00;;;;;;4991411;28;20442;-60
2022/09/24 07:27:53;;;;;;;6.40;5.80;;;14.80;1.00;;;;;;4990735;28;20457;-57
2022/09/24 07:30:18;;;;;;;8.87;6.80;;;14.90;1.00;;;;;;4990552;28;20270;-60
2022/09/24 07:32:44;;;;;;;6.83;6.23;;;15.10;1.00;;;;;;4991637;28;20190;-60
2022/09/24 07:35:09;;;;;;;6.60;6.00;;;15.20;1.00;;;;;;4990745;28;20291;-61
2022/09/24 07:37:35;;;;;;;6.97;6.23;;;15.20;1.00;;;;;;4990200;28;20198;-60
2022/09/24 07:40:01;;;;;;;6.73;6.10;;;15.30;1.00;;;;;;4989984;28;20198;-59
2022/09/24 07:42:27;;;;;;;6.70;6.00;;;15.30;1.00;;;;;;4990725;28;20249;-60
2022/09/24 07:44:55;;;;;;;7.20;6.37;;;15.30;1.00;;;;;;4990304;28;20572;-60
2022/09/24 07:47:21;;;;;;;6.23;5.63;;;15.50;1.00;;;;;;4992950;28;20414;-60
2022/09/24 07:49:47;;;;;;;8.60;5.80;;;;;;;;;;4993526;28;20924;-60
2022/09/24 07:52:12;;;;;;;5.80;5.27;;;15.80;1.00;;;;;;4991106;28;20190;-60
2022/09/24 07:54:38;;;;;;;7.00;6.23;;;16.00;1.00;;;;;;4988832;28;20431;-60
2022/09/24 07:57:11;;;;;;;6.70;6.10;;;16.10;1.00;;;;;;4987827;28;20205;-59
2022/09/24 07:59:37;;;;;;;6.60;6.10;;;16.50;1.00;;;;;;4986646;28;20493;-61
2022/09/24 08:02:02;;;;;;;5.97;5.37;;;16.90;1.00;;;;;;4996396;28;20484;-60
2022/09/24 08:04:29;;;;;;;6.67;5.63;;;17.50;1.00;;;;;;4990289;28;20236;-60
2022/09/24 08:06:54;;;;;;;6.70;6.10;;;17.60;1.00;;;;;;4973805;28;20194;-60
2022/09/24 08:09:20;;;;;;;7.10;6.40;;;17.60;1.00;;;;;;4989723;28;20428;-60
2022/09/24 08:11:48;;;;;;;6.50;5.90;;;17.70;1.00;;;;;;4990104;28;20197;-59
2022/09/24 08:14:14;;;;;;;6.73;6.23;;;17.70;1.00;;;;;;4987778;28;20270;-57
2022/09/24 08:16:40;;;;;;;7.20;6.60;;;17.90;1.00;;;;;;4990279;28;20902;-59
2022/09/24 08:19:05;;;;;;;7.53;6.30;;;17.80;1.00;;;;;;4972773;28;20230;-60
2022/09/24 08:21:32;;;;;;;6.67;6.07;;;17.90;1.00;;;;;;4990241;28;20206;-59
2022/09/24 08:23:58;;;;;;;8.43;6.20;;;17.80;1.00;;;;;;4989778;28;20189;-59
2022/09/24 08:26:23;;;;;;;6.10;5.10;;;17.90;1.00;;;;;;4989678;28;20423;-59
2022/09/24 08:28:50;;;;;;;7.07;6.00;;;18.10;1.00;;;;;;4989895;28;20179;-59
2022/09/24 08:31:16;;;;;;;8.27;6.27;;;18.00;1.00;;;;;;4990590;28;20208;-59
2022/09/24 08:33:45;;;;;;;7.37;6.03;;;18.00;1.00;;;;;;4990793;28;20441;-58
2022/09/24 08:36:11;;;;;;;5.80;5.30;;;18.50;1.00;;;;;;4990276;28;20202;-59
2022/09/24 08:38:36;;;;;;;6.60;6.00;;;18.60;1.00;;;;;;4990101;28;20430;-59
2022/09/24 08:41:11;;;;;;;7.90;5.60;;;18.50;1.00;;;;;;4989030;28;20424;-58
2022/09/24 08:44:01;;;;;;;6.43;5.67;;;18.50;1.00;;;;;;4989599;28;20695;-59
2022/09/24 08:49:26;;;;;;;6.10;5.60;;;18.70;1.00;;;;;;4988950;28;20800;-58
2022/09/24 08:52:13;;;;;;;6.70;5.47;;;18.70;1.00;;;;;;4990321;28;20412;-59
2022/09/24 08:54:42;;;;;;;6.50;5.90;;;18.70;1.00;;;;;;4990793;28;20480;-58
2022/09/24 08:57:13;;;;;;;7.80;6.40;;;19.00;1.00;;;;;;4990678;28;20418;-58
2022/09/24 08:59:42;;;;;;;5.97;5.27;;;19.20;1.00;;;;;;4989818;28;20484;-59
2022/09/24 09:02:35;;;;;;;5.97;5.33;;;19.20;1.00;;;;;;4990039;28;20476;-59
2022/09/24 09:05:12;;;;;;;6.17;5.60;;;19.10;1.00;;;;;;4989466;28;20449;-59
2022/09/24 09:08:01;;;;;;;8.63;5.03;;;19.10;1.00;;;;;;4989371;28;20457;-59
2022/09/24 09:10:33;;;;;;;6.70;6.07;;;19.30;1.00;;;;;;4992630;28;20496;-59
2022/09/24 09:13:11;;;;;;;6.00;4.90;;;19.60;1.00;;;;;;5002294;28;20428;-59
2022/09/24 09:15:42;;;;;;;6.20;5.60;;;20.00;1.00;;;;;;4988971;28;20448;-59
2022/09/24 09:18:17;;;;;;;5.27;4.77;;;20.20;1.00;;;;;;4989589;28;20416;-59
2022/09/24 09:20:45;;;;;;;5.97;5.37;;;20.20;1.00;;;;;;4988719;28;20452;-59
2022/09/24 09:23:20;;;;;;;5.90;5.40;;;20.10;1.00;;;;;;4988540;28;20543;-59
2022/09/24 09:25:53;;;;;;;5.50;5.00;;;20.30;1.00;;;;;;4985959;28;20949;-59
2022/09/24 09:28:19;;;;;;;6.43;5.43;;;20.70;1.00;;;;;;4989215;28;20446;-59
2022/09/24 09:31:12;;;;;;;6.23;5.40;;;20.80;1.00;;;;;;4989797;28;20533;-58
2022/09/24 09:33:58;;;;;;;7.67;5.10;;;21.30;1.00;;;;;;4985676;28;20986;-56
2022/09/24 09:36:27;;;;;;;5.57;5.07;;;21.60;1.00;;;;;;4988640;28;20540;-58
2022/09/24 09:39:08;;;;;;;7.17;5.40;;;21.50;1.00;;;;;;4989513;28;20440;-59
2022/09/24 09:41:48;;;;;;;6.10;5.43;;;21.40;1.00;;;;;;4989701;28;20473;-59
2022/09/24 09:44:26;;;;;;;6.23;5.63;;;21.10;1.00;;;;;;4989044;28;20439;-59
2022/09/24 09:47:08;;;;;;;6.07;5.47;;;21.10;1.00;;;;;;4989114;28;20941;-60
2022/09/24 09:49:37;;;;;;;5.53;4.63;;;21.10;1.00;;;;;;4989485;28;20453;-59
2022/09/24 09:52:13;;;;;;;5.53;4.90;;;21.10;1.00;;;;;;4988310;28;20488;-60
2022/09/24 09:54:40;;;;;;;5.80;5.30;;;21.20;1.00;;;;;;4991824;28;20507;-59
2022/09/24 09:57:13;;;;;;;6.00;5.40;;;21.30;1.00;;;;;;4992700;28;20762;-59
2022/09/24 09:59:44;;;;;;;5.20;4.80;;;21.50;1.00;;;;;;4992229;28;20455;-59
2022/09/24 10:02:18;;;;;;;5.50;5.07;;;21.90;1.00;;;;;;4993046;28;20437;-59
2022/09/24 10:04:43;;;;;;;5.40;4.90;;;21.90;1.00;;;;;;4992331;28;20479;-60
2022/09/24 10:07:10;;;;;;;6.53;5.07;;;21.90;1.00;;;;;;4992658;28;20441;-61
2022/09/24 10:09:38;;;;;;;5.13;4.73;;;21.50;1.00;;;;;;4999150;28;20424;-58
2022/09/24 10:12:07;;;;;;;6.17;5.30;;;21.70;1.00;;;;;;4992099;28;21021;-60
2022/09/24 10:14:33;;;;;;;5.43;4.97;;;22.10;1.00;;;;;;4988557;28;20515;-59
2022/09/24 10:17:04;;;;;;;5.33;4.83;;;22.50;1.00;;;;;;4997904;28;20536;-60
2022/09/24 10:19:33;;;;;;;5.80;5.23;;;22.80;1.00;;;;;;4992843;28;21159;-61
2022/09/24 10:22:08;;;;;;;4.80;4.40;;;23.10;1.00;;;;;;4992492;28;20484;-60
2022/09/24 10:24:35;;;;;;;5.30;4.80;;;23.20;1.00;;;;;;4992271;28;21368;-60
2022/09/24 10:27:16;;;;;;;5.70;5.20;;;23.20;1.00;;;;;;4992358;28;20469;-60
2022/09/24 10:32:28;;;;;;;5.27;4.87;;;22.70;1.00;;;;;;4987675;28;20464;-60
2022/09/24 10:34:59;;;;;;;6.13;5.60;;;22.30;1.00;;;;;;4984716;28;20437;-60
2022/09/24 10:37:25;;;;;;;5.07;4.67;;;21.90;1.00;;;;;;4991240;28;20424;-60
2022/09/24 10:40:02;;;;;;;5.00;4.60;;;21.90;1.00;;;;;;4995382;28;20953;-61
2022/09/24 10:42:29;;;;;;;4.93;4.53;;;21.90;1.00;;;;;;4988201;28;20819;-59
2022/09/24 10:45:00;;;;;;;4.00;3.70;;;21.70;1.00;;;;;;4992158;28;21049;-60
2022/09/24 10:48:02;;;;;;;4.70;4.30;;;21.40;1.00;;;;;;4992729;28;20449;-60
2022/09/24 10:50:44;;;;;;;6.60;5.70;;;21.40;1.00;;;;;;4991631;28;20532;-60
2022/09/24 10:53:26;;;;;;;5.27;4.50;;;21.70;1.00;;;;;;4992275;28;20783;-59
2022/09/24 10:56:22;;;;;;;4.87;4.40;;;22.10;1.00;;;;;;4991739;28;20419;-60
2022/09/24 10:59:11;;;;;;;4.60;4.20;;;22.50;1.00;;;;;;4990554;28;20458;-60
2022/09/24 11:02:07;;;;;;;4.40;4.00;;;22.70;1.00;;;;;;4991738;28;20596;-60
2022/09/24 11:04:42;;;;;;;4.47;3.70;;;22.60;1.00;;;;;;4988489;28;20408;-60
2022/09/24 11:07:27;;;;;;;4.33;3.93;;;22.70;1.00;;;;;;4991303;28;20974;-60
2022/09/24 11:10:11;;;;;;;3.97;3.30;;;22.60;1.00;;;;;;4990824;28;20785;-60
2022/09/24 11:12:42;;;;;;;4.43;3.40;;;22.40;1.00;;;;;;4991333;28;20428;-60
2022/09/24 11:15:34;;;;;;;4.10;3.63;;;22.60;1.00;;;;;;4987171;28;20966;-60
2022/09/24 11:18:18;;;;;;;4.60;3.50;;;22.80;1.00;;;;;;4947486;28;20457;-59
2022/09/24 11:21:00;;;;;;;3.73;3.40;;;22.70;1.00;;;;;;4988983;28;20955;-60
2022/09/24 11:23:35;;;;;;;3.83;3.53;;;22.70;1.00;;;;;;4989622;28;20420;-60
2022/09/24 11:26:16;;;;;;;3.87;3.47;;;22.60;1.00;;;;;;4991846;28;20467;-59
2022/09/24 11:28:56;;;;;;;4.83;3.70;;;22.70;1.00;;;;;;4990935;28;20446;-63
2022/09/24 11:31:39;;;;;;;3.90;3.50;;;22.60;1.00;;;;;;4989987;28;20453;-63
2022/09/24 11:34:26;;;;;;;4.30;4.00;;;22.30;1.00;;;;;;4989238;28;20528;-63
2022/09/24 11:37:03;;;;;;;4.03;3.63;;;22.40;1.00;;;;;;4986502;28;20471;-63
2022/09/24 11:39:37;;;;;;;4.00;3.70;;;22.30;1.00;;;;;;4988191;28;20802;-62
2022/09/24 11:42:20;;;;;;;3.90;3.60;;;22.40;1.00;;;;;;4989964;28;20447;-63
2022/09/24 11:45:23;;;;;;;5.50;3.67;;;22.40;1.00;;;;;;4989155;28;20473;-63
2022/09/24 11:48:28;;;;;;;4.10;3.70;;;22.20;1.00;;;;;;4988050;28;20508;-61
2022/09/24 11:50:54;;;;;;;4.13;3.73;;;22.10;1.00;;;;;;4987181;28;20449;-62
2022/09/24 11:53:22;;;;;;;3.50;3.20;;;22.20;1.00;;;;;;4990633;28;20983;-63
2022/09/24 11:55:57;;;;;;;4.17;3.67;;;22.30;1.00;;;;;;4989190;28;20545;-62
2022/09/24 11:58:29;;;;;;;4.07;3.67;;;22.30;1.00;;;;;;4986064;28;20481;-61
2022/09/24 12:00:59;;;;;;;4.03;3.73;;;22.20;1.00;;;;;;4984883;28;20449;-62
2022/09/24 12:03:41;;;;;;;4.30;3.53;;;22.30;1.00;;;;;;4985389;28;20457;-62
2022/09/24 12:06:12;;;;;;;4.20;3.50;;;22.30;1.00;;;;;;4989084;28;20415;-62
2022/09/24 12:08:40;;;;;;;5.87;3.87;;;22.50;1.00;;;;;;4987628;28;20454;-62
2022/09/24 12:11:29;;;;;;;3.67;3.37;;;22.70;1.00;;;;;;4990018;28;20524;-62
2022/09/24 12:14:17;;;;;;;4.83;4.23;;;22.70;1.00;;;;;;4989476;28;20819;-62
2022/09/24 12:16:49;;;;;;;3.93;3.63;;;22.70;1.00;;;;;;4987557;28;20423;-61
2022/09/24 12:19:26;;;;;;;4.50;4.07;;;22.50;1.00;;;;;;4991704;28;20909;-62
2022/09/24 12:21:53;;;;;;;4.30;3.90;;;22.70;1.00;;;;;;4989069;28;20447;-62
2022/09/24 12:24:30;;;;;;;3.50;3.20;;;22.90;1.00;;;;;;4990215;28;20450;-62
2022/09/24 12:26:58;;;;;;;3.87;3.57;;;23.10;1.00;;;;;;4985812;28;20453;-62
2022/09/24 12:32:53;;;;;;;5.43;4.10;;;22.80;1.00;;;;;;4986983;28;21069;-62
2022/09/24 12:35:27;;;;;;;4.10;3.80;;;22.50;1.00;;;;;;4984457;28;20455;-62
2022/09/24 12:38:15;;;;;;;4.77;3.50;;;22.30;1.00;;;;;;4986154;28;20449;-60
2022/09/24 12:41:02;;;;;;;3.70;3.40;;;22.50;1.00;;;;;;4992172;28;20450;-62
2022/09/24 12:43:37;;;;;;;4.23;3.87;;;22.50;1.00;;;;;;4987424;28;21196;-63
2022/09/24 12:46:05;;;;;;;4.33;3.87;;;22.50;1.00;;;;;;4990825;28;20492;-62
2022/09/24 12:48:37;;;;;;;5.73;4.17;;;22.50;1.00;;;;;;4989714;28;20442;-62
2022/09/24 12:51:05;;;;;;;4.90;4.43;;;22.70;1.00;;;;;;4989741;28;20531;-61
2022/09/24 12:53:40;;;;;;;4.10;3.80;;;22.40;1.00;;;;;;4986657;28;20553;-62
2022/09/24 12:56:08;;;;;;;4.20;3.90;;;;;;;;;;4988494;28;20419;-63
2022/09/24 12:58:39;;;;;;;4.63;4.23;;;22.00;1.00;;;;;;4989595;28;20449;-62
2022/09/24 13:01:24;;;;;;;5.37;4.27;;;22.00;1.00;;;;;;4985697;28;20453;-62
2022/09/24 13:04:14;;;;;;;4.80;4.30;;;22.10;1.00;;;;;;4985358;28;20775;-62
2022/09/24 13:06:42;;;;;;;5.07;4.17;;;21.90;1.00;;;;;;4981358;28;20459;-62
2022/09/24 13:09:26;;;;;;;4.50;4.10;;;21.80;1.00;;;;;;4987614;28;20435;-63
2022/09/24 13:12:04;;;;;;;5.13;4.30;;;22.00;1.00;;;;;;4986508;28;20450;-62
2022/09/24 13:14:32;;;;;;;4.03;3.63;;;21.70;1.00;;;;;;4988689;28;20504;-62
2022/09/24 13:17:04;;;;;;;4.50;3.90;;;21.60;1.00;;;;;;4983733;28;20435;-63
2022/09/24 13:19:40;;;;;;;4.03;3.70;;;21.70;1.00;;;;;;4987796;28;21367;-62
2022/09/24 13:22:18;;;;;;;4.20;3.80;;;21.80;1.00;;;;;;4989171;28;20444;-62
2022/09/24 13:24:50;;;;;;;4.00;3.60;;;22.10;1.00;;;;;;4983887;28;20448;-62
2022/09/24 13:27:36;;;;;;;4.77;3.50;;;22.30;1.00;;;;;;4988172;28;20424;-62
2022/09/24 13:30:11;;;;;;;3.87;3.57;;;22.50;1.00;;;;;;4991138;28;20453;-62